Time;durP1;ratioP1;P1;durP2;ratioP2;P2;SDS_P1;SDS_P2;PMS_P1;PMS_P2;Temp;Humidity;BMP_temperature;BMP_pressure;BME280_temperature;BME280_humidity;BME280_pressure;Samples;Min_cycle;Max_cycle;Signal;HPM_P1;HPM_P2
2022/07/18 00:01:38;;;;;;;14.52;4.53;;;;;;;14.77;78.36;102257.75;5017698;28;20173;-74
2022/07/18 00:04:03;;;;;;;16.90;4.30;;;;;;;14.69;79.44;102244.75;5030019;28;20067;-74
2022/07/18 00:06:29;;;;;;;18.20;4.85;;;;;;;14.63;79.10;102245.19;5026250;28;20079;-74
2022/07/18 00:08:54;;;;;;;15.35;4.63;;;;;;;14.60;79.11;102238.09;5029180;28;20385;-74
2022/07/18 00:11:20;;;;;;;14.30;4.78;;;;;;;14.57;79.06;102246.44;5025194;28;20030;-74
2022/07/18 00:13:46;;;;;;;16.73;4.88;;;;;;;14.52;79.45;102243.16;5024796;28;20032;-74
2022/07/18 00:16:12;;;;;;;17.35;5.28;;;;;;;14.47;79.12;102246.19;5027444;28;20397;-74
2022/07/18 00:18:37;;;;;;;19.10;5.15;;;;;;;14.46;79.71;102235.47;5029842;28;20230;-74
2022/07/18 00:21:02;;;;;;;24.40;4.93;;;;;;;14.50;79.54;102237.00;5012604;28;20034;-74
2022/07/18 00:23:28;;;;;;;16.60;5.10;;;;;;;14.50;80.21;102237.84;5018738;28;20336;-74
2022/07/18 00:25:53;;;;;;;15.45;5.15;;;;;;;14.46;79.72;102232.75;5031852;28;20453;-74
2022/07/18 00:28:18;;;;;;;18.58;5.13;;;;;;;14.44;79.71;102223.88;5029400;28;20033;-74
2022/07/18 00:30:44;;;;;;;18.27;4.57;;;;;;;14.41;80.25;102224.09;5026037;28;20025;-74
2022/07/18 00:33:09;;;;;;;14.68;5.15;;;;;;;14.39;80.01;102215.22;5029303;28;20037;-74
2022/07/18 00:35:35;;;;;;;14.57;4.80;;;;;;;14.38;80.03;102210.75;5021177;28;20026;-74
2022/07/18 00:38:01;;;;;;;15.88;4.85;;;;;;;14.39;80.02;102213.34;5027740;28;20071;-74
2022/07/18 00:40:27;;;;;;;17.77;5.20;;;;;;;14.40;80.34;102212.41;5016320;28;20037;-74
2022/07/18 00:42:52;;;;;;;14.48;4.68;;;;;;;14.40;80.26;102206.97;5018677;28;20560;-74
2022/07/18 00:45:18;;;;;;;18.98;4.78;;;;;;;14.39;80.57;102205.25;5017026;28;20030;-74
2022/07/18 00:47:43;;;;;;;14.27;4.45;;;;;;;14.38;80.35;102208.94;5012232;28;20030;-74
2022/07/18 00:50:09;;;;;;;14.57;5.28;;;;;;;14.34;80.47;102212.81;5019541;28;20398;-74
2022/07/18 00:52:36;;;;;;;16.60;5.40;;;;;;;14.29;80.94;102207.72;5021971;28;20033;-74
2022/07/18 00:55:03;;;;;;;16.83;5.68;;;;;;;14.33;80.53;102208.38;5027772;28;20048;-74
2022/07/18 00:57:28;;;;;;;16.27;5.13;;;;;;;14.32;80.67;102207.50;5030382;28;20032;-74
2022/07/18 01:02:39;;;;;;;15.43;5.63;;;;;;;14.38;79.77;102199.94;5026358;28;20032;-74
2022/07/18 01:05:06;;;;;;;19.77;6.20;;;;;;;14.37;80.60;102200.94;5030147;28;20026;-74
2022/07/18 01:07:33;;;;;;;16.42;5.43;;;;;;;14.36;79.68;102200.03;5025026;28;20053;-74
2022/07/18 01:09:58;;;;;;;14.90;5.32;;;;;;;14.36;79.61;102194.63;5020611;28;20080;-74
2022/07/18 01:12:25;;;;;;;18.10;5.75;;;;;;;14.34;79.63;102200.16;5022543;28;20068;-74
2022/07/18 01:14:51;;;;;;;16.50;5.95;;;;;;;14.32;79.08;102194.00;5017181;28;20034;-74
2022/07/18 01:17:17;;;;;;;22.85;6.20;;;;;;;14.32;78.81;102193.13;5018663;28;20387;-74
2022/07/18 01:19:43;;;;;;;16.02;5.20;;;;;;;14.31;78.66;102189.53;5017503;28;20405;-74
2022/07/18 01:22:10;;;;;;;16.98;5.32;;;;;;;14.31;79.36;102194.09;5028199;28;20092;-74
2022/07/18 01:24:35;;;;;;;18.27;5.93;;;;;;;14.30;79.34;102181.53;5025299;28;20064;-74
2022/07/18 01:27:00;;;;;;;16.35;6.03;;;;;;;14.29;78.51;102177.09;5031370;28;20029;-74
2022/07/18 01:29:26;;;;;;;16.67;6.28;;;;;;;14.26;78.77;102180.91;5027710;28;20060;-74
2022/07/18 01:31:51;;;;;;;17.73;5.82;;;;;;;14.27;78.47;102184.44;5032627;28;20026;-74
2022/07/18 01:34:22;;;;;;;15.80;6.20;;;;;;;14.29;77.29;102194.19;5032344;28;20040;-74
2022/07/18 01:36:47;;;;;;;17.00;5.85;;;;;;;14.29;78.63;102182.50;5025427;28;20069;-74
2022/07/18 01:39:12;;;;;;;17.77;5.53;;;;;;;14.31;78.50;102184.13;5017996;28;20060;-74
2022/07/18 01:41:37;;;;;;;15.35;4.95;;;;;;;14.33;78.32;102184.91;5021493;28;20481;-74
2022/07/18 01:44:03;;;;;;;16.80;4.63;;;;;;;14.36;78.13;102185.66;5034738;28;20036;-74
2022/07/18 01:46:29;;;;;;;19.20;5.20;;;;;;;14.36;78.67;102188.38;5025212;28;20137;-74
2022/07/18 01:48:54;;;;;;;17.35;4.93;;;;;;;14.34;79.03;102189.34;5033304;28;20029;-74
2022/07/18 01:51:19;;;;;;;18.33;4.95;;;;;;;14.36;79.35;102188.38;5026120;28;20387;-74
2022/07/18 01:53:55;;;;;;;14.88;4.75;;;;;;;14.35;78.96;102187.50;5022853;28;20029;-74
2022/07/18 01:56:20;;;;;;;17.90;5.10;;;;;;;14.31;79.46;102181.44;5020402;28;20084;-74
2022/07/18 01:58:45;;;;;;;14.65;5.30;;;;;;;14.28;78.74;102191.59;5030831;28;20063;-74
2022/07/18 02:01:10;;;;;;;16.30;5.90;;;;;;;14.20;79.24;102183.13;5032299;28;20037;-74
2022/07/18 02:03:36;;;;;;;17.45;5.38;;;;;;;14.16;79.18;102186.03;5033189;28;20025;-74
2022/07/18 02:06:01;;;;;;;14.65;5.35;;;;;;;14.07;79.06;102186.66;5032318;28;20033;-74
2022/07/18 02:08:27;;;;;;;18.52;5.60;;;;;;;14.03;79.08;102176.16;5022878;28;20420;-74
2022/07/18 02:10:52;;;;;;;22.70;6.38;;;;;;;14.02;77.89;102182.53;5023985;28;20033;-74
2022/07/18 02:13:19;;;;;;;18.20;5.82;;;;;;;14.02;77.79;102172.59;5031531;28;20029;-74
2022/07/18 02:15:45;;;;;;;18.30;6.60;;;;;;;14.03;78.03;102170.75;5024889;28;20524;-74
2022/07/18 02:18:10;;;;;;;18.45;6.30;;;;;;;13.99;78.23;102170.94;5035957;28;20104;-74
2022/07/18 02:20:36;;;;;;;19.33;6.43;;;;;;;13.97;78.36;102170.19;5028649;28;20030;-74
2022/07/18 02:23:01;;;;;;;17.75;5.85;;;;;;;13.92;78.12;102169.63;5032450;28;20029;-74
2022/07/18 02:25:27;;;;;;;16.35;5.53;;;;;;;13.90;78.57;102166.16;5024643;28;20477;-74
2022/07/18 02:27:52;;;;;;;17.92;6.32;;;;;;;13.89;78.79;102161.72;5014013;28;20033;-74
2022/07/18 02:30:18;;;;;;;17.48;6.05;;;;;;;13.87;78.62;102171.78;5018481;28;20474;-74
2022/07/18 02:32:43;;;;;;;18.40;6.50;;;;;;;13.83;78.33;102166.69;5025082;28;20040;-74
2022/07/18 02:35:09;;;;;;;17.83;6.43;;;;;;;13.77;79.03;102160.69;5034483;28;20378;-74
2022/07/18 02:37:37;;;;;;;16.63;5.60;;;;;;;13.75;79.30;102159.09;5014329;28;20112;-74
2022/07/18 02:40:04;;;;;;;16.60;5.97;;;;;;;13.73;79.26;102167.25;5019940;28;20043;-74
2022/07/18 02:42:29;;;;;;;19.63;6.32;;;;;;;13.75;78.97;102156.38;5033001;28;20033;-74
2022/07/18 02:44:54;;;;;;;19.48;5.78;;;;;;;13.74;79.01;102157.34;5031888;28;20025;-74
2022/07/18 02:47:20;;;;;;;15.45;5.57;;;;;;;13.77;78.97;102147.19;5026009;28;20029;-74
2022/07/18 02:49:45;;;;;;;16.50;5.40;;;;;;;13.78;79.46;102148.94;5027351;28;20107;-74
2022/07/18 02:52:10;;;;;;;17.10;5.55;;;;;;;13.73;79.32;102151.03;5025063;28;20034;-74
2022/07/18 02:54:38;;;;;;;17.38;5.40;;;;;;;13.62;79.67;102157.16;5022574;28;20033;-74
2022/07/18 02:57:03;;;;;;;18.92;6.40;;;;;;;13.56;79.85;102157.56;5028269;28;20068;-74
2022/07/18 02:59:29;;;;;;;19.95;6.53;;;;;;;13.53;80.25;102148.78;5032716;28;20022;-74
2022/07/18 03:01:55;;;;;;;17.25;6.25;;;;;;;13.49;80.27;102150.84;5032682;28;20393;-74
2022/07/18 03:04:21;;;;;;;17.50;6.07;;;;;;;13.51;79.90;102154.28;5020506;28;20072;-74
2022/07/18 03:06:47;;;;;;;15.48;5.70;;;;;;;13.52;79.31;102147.94;5022866;28;20137;-74
2022/07/18 03:09:13;;;;;;;16.58;6.20;;;;;;;13.54;78.86;102147.84;5013691;28;20088;-74
2022/07/18 03:11:39;;;;;;;17.85;5.55;;;;;;;13.57;79.76;102151.22;5029545;28;20025;-74
2022/07/18 03:14:04;;;;;;;20.10;6.00;;;;;;;13.57;79.69;102137.72;5031800;28;20036;-74
2022/07/18 03:16:29;;;;;;;15.48;5.78;;;;;;;13.54;80.17;102126.22;5026037;28;20029;-74
2022/07/18 03:18:55;;;;;;;18.25;6.43;;;;;;;13.51;80.36;102131.81;5012432;28;20026;-74
2022/07/18 03:21:20;;;;;;;16.05;5.80;;;;;;;13.48;80.18;102121.22;5024063;28;20031;-74
2022/07/18 03:23:45;;;;;;;16.92;5.63;;;;;;;13.47;80.41;102123.06;5029312;28;20049;-74
2022/07/18 03:26:11;;;;;;;19.15;6.03;;;;;;;13.48;79.97;102118.53;5013922;28;20513;-74
2022/07/18 03:28:36;;;;;;;19.25;6.57;;;;;;;13.46;80.24;102126.72;5015000;28;20037;-74
2022/07/18 03:31:01;;;;;;;17.00;6.18;;;;;;;13.46;79.98;102124.88;5028847;28;20389;-74
2022/07/18 03:33:27;;;;;;;18.48;6.20;;;;;;;13.48;79.56;102113.97;5030499;28;20021;-74
2022/07/18 03:35:52;;;;;;;16.90;5.75;;;;;;;13.46;80.59;102111.38;5019535;28;20033;-74
2022/07/18 03:38:18;;;;;;;19.05;6.30;;;;;;;13.44;79.38;102124.13;5016312;28;20025;-74
2022/07/18 03:40:43;;;;;;;19.00;6.72;;;;;;;13.47;79.56;102112.28;5031042;28;20026;-74
2022/07/18 03:43:09;;;;;;;18.08;6.22;;;;;;;13.45;79.71;102111.47;5031323;28;20029;-74
2022/07/18 03:45:34;;;;;;;24.45;7.35;;;;;;;13.44;80.05;102117.84;5018083;28;20133;-74
2022/07/18 03:48:00;;;;;;;17.83;5.75;;;;;;;13.36;80.47;102118.34;5030756;28;20021;-74
2022/07/18 03:50:27;;;;;;;17.70;6.55;;;;;;;13.35;79.86;102123.84;5018845;28;20072;-74
2022/07/18 03:52:52;;;;;;;19.48;6.47;;;;;;;13.35;80.40;102126.56;5020574;28;20037;-74
2022/07/18 03:55:18;;;;;;;17.30;5.70;;;;;;;13.33;80.17;102121.22;5030408;28;20031;-74
2022/07/18 03:57:43;;;;;;;20.67;6.00;;;;;;;13.29;80.90;102112.47;5031794;28;20028;-74
2022/07/18 04:00:09;;;;;;;18.90;6.32;;;;;;;13.29;81.30;102111.59;5027374;28;20060;-74
2022/07/18 04:02:42;;;;;;;20.17;6.20;;;;;;;13.25;81.08;102113.63;5018402;28;20127;-74
2022/07/18 04:05:08;;;;;;;19.63;6.63;;;;;;;13.24;81.41;102119.13;5025777;28;20112;-74
2022/07/18 04:07:34;;;;;;;16.90;6.07;;;;;;;13.22;81.55;102119.22;5030161;28;20541;-74
2022/07/18 04:09:59;;;;;;;20.27;7.38;;;;;;;13.24;81.69;102113.72;5022790;28;20057;-74
2022/07/18 04:12:24;;;;;;;17.05;6.25;;;;;;;13.26;81.49;102118.03;5016934;28;20064;-74
2022/07/18 04:14:50;;;;;;;21.98;6.40;;;;;;;13.25;81.73;102116.31;5027272;28;20060;-74
2022/07/18 04:17:15;;;;;;;17.08;5.85;;;;;;;13.27;81.20;102108.97;5012635;28;20014;-74
2022/07/18 04:19:40;;;;;;;19.10;6.75;;;;;;;13.31;81.50;102111.47;5027610;28;20033;-74
2022/07/18 04:22:06;;;;;;;18.17;6.32;;;;;;;13.30;81.66;102102.53;5029741;28;20029;-74
2022/07/18 04:24:31;;;;;;;20.60;7.43;;;;;;;13.28;82.19;102097.22;5023626;28;20025;-74
2022/07/18 04:26:56;;;;;;;20.33;7.40;;;;;;;13.31;82.20;102087.19;5026307;28;20120;-74
2022/07/18 04:29:21;;;;;;;19.42;6.90;;;;;;;13.29;81.79;102098.06;5030036;28;20071;-74
2022/07/18 04:31:47;;;;;;;17.17;7.07;;;;;;;13.32;82.55;102086.22;5030047;28;20029;-74
2022/07/18 04:34:12;;;;;;;17.35;6.28;;;;;;;13.34;82.43;102081.56;5026940;28;20502;-74
2022/07/18 04:36:37;;;;;;;17.48;6.65;;;;;;;13.37;82.33;102081.44;5015340;28;20025;-74
2022/07/18 04:39:02;;;;;;;18.35;6.55;;;;;;;13.41;81.68;102081.13;5027671;28;20033;-74
2022/07/18 04:41:28;;;;;;;17.63;6.50;;;;;;;13.45;81.92;102077.22;5024369;28;20059;-74
2022/07/18 04:43:53;;;;;;;18.58;6.63;;;;;;;13.51;82.11;102084.06;5031016;28;20035;-74
2022/07/18 04:46:18;;;;;;;19.08;6.38;;;;;;;13.57;81.86;102085.50;5023147;28;20149;-74
2022/07/18 04:48:44;;;;;;;18.52;7.32;;;;;;;13.60;81.44;102075.38;5018744;28;20115;-74
2022/07/18 04:51:09;;;;;;;17.08;6.28;;;;;;;13.69;81.97;102081.13;5022797;28;20474;-74
2022/07/18 04:53:34;;;;;;;18.45;6.25;;;;;;;13.74;80.87;102081.69;5019453;28;20026;-74
2022/07/18 04:55:59;;;;;;;17.80;6.38;;;;;;;13.77;82.13;102079.63;5016122;28;20036;-74
2022/07/18 04:58:25;;;;;;;20.17;6.57;;;;;;;13.81;82.14;102086.56;5028186;28;20029;-74
2022/07/18 05:00:50;;;;;;;18.05;6.55;;;;;;;13.85;82.03;102086.34;5028203;28;20041;-74
2022/07/18 05:03:15;;;;;;;22.67;8.20;;;;;;;13.90;82.20;102093.19;5015888;28;20109;-74
2022/07/18 05:05:40;;;;;;;18.85;7.22;;;;;;;13.96;81.19;102087.34;5029733;28;20028;-74
2022/07/18 05:08:06;;;;;;;18.02;7.07;;;;;;;14.02;82.52;102082.53;5021001;28;20049;-74
2022/07/18 05:10:32;;;;;;;19.10;7.63;;;;;;;14.07;82.59;102083.06;5023299;28;20393;-74
2022/07/18 05:12:58;;;;;;;18.92;7.18;;;;;;;14.15;82.60;102083.41;5018648;28;20092;-74
2022/07/18 05:15:24;;;;;;;16.58;6.50;;;;;;;14.23;82.72;102089.16;5028650;28;20808;-74
2022/07/18 05:17:50;;;;;;;18.73;7.38;;;;;;;14.28;83.01;102084.28;5021411;28;20449;-74
2022/07/18 05:20:18;;;;;;;20.90;7.28;;;;;;;14.34;83.05;102094.66;5016192;28;20034;-74
2022/07/18 05:22:44;;;;;;;20.85;7.90;;;;;;;14.42;83.05;102094.16;5014110;28;20041;-74
2022/07/18 05:25:10;;;;;;;21.17;7.28;;;;;;;14.49;82.60;102091.88;5020797;28;20038;-74
2022/07/18 05:27:36;;;;;;;19.83;7.25;;;;;;;14.56;83.10;102086.91;5026099;28;20041;-74
2022/07/18 05:30:03;;;;;;;20.42;7.28;;;;;;;14.62;83.34;102081.94;5025364;28;20040;-74
2022/07/18 05:32:29;;;;;;;17.38;6.25;;;;;;;14.67;81.99;102089.72;5022365;28;20025;-73
2022/07/18 05:34:54;;;;;;;16.05;4.60;;;;;;;14.73;78.01;102088.44;5021673;28;20379;-75
2022/07/18 05:37:19;;;;;;;16.50;5.47;;;;;;;14.83;79.63;102090.41;5017284;28;20033;-74
2022/07/18 05:39:45;;;;;;;22.48;6.63;;;;;;;14.91;79.10;102097.09;5028950;28;20025;-75
2022/07/18 05:42:10;;;;;;;12.77;4.55;;;;;;;14.96;78.14;102098.47;5028243;28;20465;-74
2022/07/18 05:44:35;;;;;;;11.23;2.90;;;;;;;14.99;73.17;102095.56;5029264;28;20030;-75
2022/07/18 05:47:01;;;;;;;8.10;3.22;;;;;;;15.02;70.72;102094.47;5029988;28;20034;-75
2022/07/18 05:49:27;;;;;;;19.52;6.30;;;;;;;15.13;74.06;102088.28;5026981;28;20045;-75
2022/07/18 05:51:52;;;;;;;12.77;3.58;;;;;;;15.14;69.99;102092.69;5028739;28;20110;-75
2022/07/18 05:54:20;;;;;;;18.13;4.57;;;;;;;15.21;72.86;102088.56;5028699;28;20025;-75
2022/07/18 05:56:50;;;;;;;10.38;3.50;;;;;;;15.21;68.12;102099.41;5013332;28;20037;-75
2022/07/18 05:59:18;;;;;;;17.05;5.00;;;;;;;15.27;68.77;102093.56;5030004;28;20025;-75
2022/07/18 06:01:43;;;;;;;12.68;4.35;;;;;;;15.31;67.75;102088.78;5030814;28;20045;-75
2022/07/18 06:04:09;;;;;;;11.05;3.83;;;;;;;15.33;65.59;102098.53;5032634;28;20029;-75
2022/07/18 06:06:34;;;;;;;19.92;5.30;;;;;;;15.44;69.41;102094.16;5017618;28;20029;-75
2022/07/18 06:09:00;;;;;;;11.32;4.57;;;;;;;15.50;69.44;102090.97;5017647;28;20163;-74
2022/07/18 06:11:25;;;;;;;17.23;5.00;;;;;;;15.52;65.29;102089.00;5026505;28;20053;-74
2022/07/18 06:13:50;;;;;;;14.40;5.05;;;;;;;15.58;65.82;102095.81;5033396;28;20030;-74
2022/07/18 06:16:16;;;;;;;13.38;4.47;;;;;;;15.61;64.42;102101.00;5028531;28;20045;-74
2022/07/18 06:18:41;;;;;;;14.02;4.43;;;;;;;15.66;63.54;102091.56;5030762;28;20087;-75
2022/07/18 06:21:06;;;;;;;18.75;5.97;;;;;;;15.86;65.86;102084.66;5017973;28;20025;-74
2022/07/18 06:23:32;;;;;;;18.23;5.50;;;;;;;15.96;68.44;102071.28;5031413;28;20022;-75
2022/07/18 06:25:58;;;;;;;15.52;4.65;;;;;;;15.92;62.82;102080.63;5020878;28;20504;-75
2022/07/18 06:28:24;;;;;;;16.40;5.63;;;;;;;15.98;63.64;102074.72;5029304;28;20037;-75
2022/07/18 06:30:50;;;;;;;13.30;4.30;;;;;;;16.00;64.33;102071.91;5031001;28;20021;-75
2022/07/18 06:33:15;;;;;;;16.75;5.13;;;;;;;16.07;63.01;102070.44;5023863;28;20039;-75
2022/07/18 06:35:40;;;;;;;23.33;6.20;;;;;;;16.19;67.19;102064.09;5031235;28;20025;-75
2022/07/18 06:38:06;;;;;;;21.02;5.03;;;;;;;16.25;63.68;102068.13;5032601;28;20025;-74
2022/07/18 06:40:31;;;;;;;16.00;4.47;;;;;;;16.31;63.48;102074.94;5027775;28;20474;-75
2022/07/18 06:42:57;;;;;;;14.60;4.57;;;;;;;16.36;62.92;102065.47;5030120;28;20483;-75
2022/07/18 06:45:22;;;;;;;16.95;4.93;;;;;;;16.47;64.97;102063.75;5022322;28;20060;-75
2022/07/18 06:47:47;;;;;;;16.80;4.30;;;;;;;16.53;63.98;102064.13;5029326;28;20025;-74
2022/07/18 06:50:14;;;;;;;16.85;4.57;;;;;;;16.57;62.69;102062.91;5019498;28;20033;-74
2022/07/18 06:52:41;;;;;;;13.68;4.38;;;;;;;16.62;63.13;102059.81;5025160;28;20033;-75
2022/07/18 06:55:07;;;;;;;13.95;4.45;;;;;;;16.67;62.15;102057.59;5030070;28;20481;-75
2022/07/18 06:57:32;;;;;;;17.42;4.68;;;;;;;16.72;62.20;102055.38;5029525;28;20064;-75
2022/07/18 06:59:57;;;;;;;13.02;4.60;;;;;;;16.83;62.61;102061.81;5029648;28;20449;-75
2022/07/18 07:02:23;;;;;;;14.40;4.15;;;;;;;16.97;62.22;102061.59;5030250;28;20029;-75
2022/07/18 07:04:48;;;;;;;17.52;4.50;;;;;;;17.04;61.88;102065.53;5031031;28;20025;-75
2022/07/18 07:07:13;;;;;;;16.20;4.25;;;;;;;17.16;63.23;102057.34;5028538;28;20029;-75
2022/07/18 07:09:38;;;;;;;17.40;4.20;;;;;;;17.29;62.63;102055.34;5028587;28;20018;-75
2022/07/18 07:12:04;;;;;;;13.57;4.22;;;;;;;17.36;61.17;102059.28;5028229;28;20017;-75
2022/07/18 07:14:29;;;;;;;10.88;3.63;;;;;;;17.38;61.24;102068.19;5026743;28;20393;-75
2022/07/18 07:16:54;;;;;;;13.10;3.97;;;;;;;17.43;60.54;102068.66;5027968;28;20152;-75
2022/07/18 07:19:20;;;;;;;12.70;3.78;;;;;;;17.52;60.77;102063.44;5026237;28;20478;-75
2022/07/18 07:21:45;;;;;;;15.35;4.20;;;;;;;17.59;60.77;102065.50;5029059;28;20048;-75
2022/07/18 07:24:10;;;;;;;14.95;3.90;;;;;;;17.65;60.70;102075.00;5028092;28;20032;-75
2022/07/18 07:26:35;;;;;;;13.18;4.10;;;;;;;17.71;61.04;102069.06;5029952;28;20069;-75
2022/07/18 07:29:01;;;;;;;11.93;3.35;;;;;;;17.77;61.04;102067.69;5024840;28;20033;-75
2022/07/18 07:31:26;;;;;;;14.82;4.15;;;;;;;17.82;61.41;102071.72;5024879;28;20469;-75
2022/07/18 07:33:51;;;;;;;13.70;3.47;;;;;;;17.90;61.14;102071.09;5028054;28;20029;-75
2022/07/18 07:36:17;;;;;;;13.32;4.03;;;;;;;17.98;61.20;102067.75;5027354;28;20124;-75
2022/07/18 07:38:42;;;;;;;7.93;3.10;;;;;;;18.04;61.09;102069.94;5030643;28;20025;-75
2022/07/18 07:41:07;;;;;;;12.02;3.53;;;;;;;18.08;61.25;102065.97;5029736;28;20460;-76
2022/07/18 07:43:36;;;;;;;8.75;3.35;;;;;;;18.14;61.30;102070.88;5027998;28;20405;-74
2022/07/18 07:46:01;;;;;;;12.20;3.97;;;;;;;18.23;61.21;102068.34;5031147;28;20025;-74
2022/07/18 07:48:26;;;;;;;10.13;3.00;;;;;;;18.31;61.16;102072.13;5029403;28;20034;-77
2022/07/18 07:50:52;;;;;;;8.43;3.08;;;;;;;18.38;61.47;102061.56;5028218;28;20072;-75
2022/07/18 07:53:17;;;;;;;10.32;3.28;;;;;;;18.45;60.99;102060.03;5026477;28;20117;-75
2022/07/18 07:55:42;;;;;;;9.68;3.08;;;;;;;18.52;61.53;102044.00;5031835;28;20029;-74
2022/07/18 07:58:09;;;;;;;7.30;3.03;;;;;;;18.57;61.49;102044.47;5029629;28;20108;-74
2022/07/18 08:00:34;;;;;;;9.98;3.33;;;;;;;18.64;61.00;102042.09;5036739;28;20071;-74
2022/07/18 08:03:02;;;;;;;9.05;3.20;;;;;;;18.72;60.06;102027.78;5031073;28;20029;-74
2022/07/18 08:05:29;;;;;;;10.35;2.97;;;;;;;18.79;58.67;102034.41;5030298;28;20036;-74
2022/07/18 08:07:55;;;;;;;10.45;2.85;;;;;;;18.82;61.23;102037.69;5035757;28;20029;-74
2022/07/18 08:10:21;;;;;;;13.38;3.40;;;;;;;18.89;60.88;102032.59;5027658;28;20627;-74
2022/07/18 08:12:46;;;;;;;13.82;3.45;;;;;;;18.99;55.28;102028.06;5031201;28;20083;-74
2022/07/18 08:15:11;;;;;;;14.23;4.15;;;;;;;19.07;55.24;102030.06;5027677;28;20108;-74
2022/07/18 08:17:37;;;;;;;12.15;3.35;;;;;;;19.06;60.10;102025.63;5030279;28;20022;-74
2022/07/18 08:20:03;;;;;;;10.05;3.25;;;;;;;19.14;59.90;102024.94;5025594;28;20033;-74
2022/07/18 08:22:29;;;;;;;11.00;3.22;;;;;;;19.16;61.04;102017.47;5032320;28;20397;-74
2022/07/18 08:24:54;;;;;;;8.18;2.80;;;;;;;19.24;61.29;102019.47;5028036;28;20053;-75
2022/07/18 08:27:19;;;;;;;14.38;3.28;;;;;;;19.30;59.10;102013.50;5030928;28;20017;-75
2022/07/18 08:29:44;;;;;;;11.65;3.17;;;;;;;19.35;61.47;102013.91;5026078;28;20030;-74
2022/07/18 08:32:10;;;;;;;17.30;3.40;;;;;;;19.44;59.74;102021.22;5035392;28;20044;-74
2022/07/18 08:34:35;;;;;;;14.93;3.70;;;;;;;19.46;60.69;102018.34;5029274;28;20032;-74
2022/07/18 08:37:00;;;;;;;13.52;4.13;;;;;;;19.54;60.26;102024.81;5039019;28;20473;-74
2022/07/18 08:39:26;;;;;;;8.02;3.42;;;;;;;19.55;58.66;102034.72;5036504;28;20029;-74
2022/07/18 08:41:51;;;;;;;14.02;3.72;;;;;;;19.69;57.87;102029.84;5030391;28;20029;-74
2022/07/18 08:44:18;;;;;;;9.07;2.83;;;;;;;19.67;60.18;102023.69;5032427;28;20021;-74
2022/07/18 08:46:49;;;;;;;11.00;3.35;;;;;;;19.66;61.31;102028.25;5028873;28;20048;-74
2022/07/18 08:49:15;;;;;;;12.60;3.22;;;;;;;19.70;61.29;102037.03;5035067;28;20038;-74
2022/07/18 08:51:42;;;;;;;14.57;3.58;;;;;;;19.99;56.67;102038.94;5030842;28;20128;-74
2022/07/18 08:54:08;;;;;;;17.70;4.20;;;;;;;20.06;55.04;102026.44;5028618;28;20053;-75
2022/07/18 08:56:33;;;;;;;8.02;3.40;;;;;;;20.05;58.52;102024.69;5030271;28;20091;-74
2022/07/18 08:59:02;;;;;;;12.82;2.92;;;;;;;20.02;59.70;102023.13;5030944;28;20132;-74
2022/07/18 09:01:27;;;;;;;8.13;3.17;;;;;;;20.04;60.44;102020.25;5029358;28;20359;-74
2022/07/18 09:04:14;;;;;;;10.35;3.20;;;;;;;20.04;59.33;102022.97;5028727;28;20021;-74
2022/07/18 09:06:46;;;;;;;12.57;3.50;;;;;;;20.06;59.22;102027.28;5033915;28;20092;-74
2022/07/18 09:09:14;;;;;;;13.63;3.70;;;;;;;20.13;56.95;102027.53;5030289;28;20397;-75
2022/07/18 09:11:54;;;;;;;15.15;4.00;;;;;;;20.20;57.32;102028.66;5028265;28;20014;-75
2022/07/18 09:14:33;;;;;;;8.85;3.33;;;;;;;20.21;58.33;102026.81;5030076;28;20493;-75
2022/07/18 09:17:13;;;;;;;9.50;3.05;;;;;;;20.23;57.52;102028.38;5027621;28;20021;-75
2022/07/18 09:19:43;;;;;;;13.13;3.20;;;;;;;20.23;58.88;102030.25;5024198;28;20433;-75
2022/07/18 09:22:12;;;;;;;;;;;;;;;20.30;59.17;102027.81;5030774;28;20115;-75
2022/07/18 09:24:54;;;;;;;8.27;3.05;;;;;;;20.28;59.82;102036.16;5028691;28;20007;-74
2022/07/18 09:27:41;;;;;;;8.40;3.25;;;;;;;20.27;59.12;102028.97;5028739;28;20025;-74
2022/07/18 09:30:16;;;;;;;7.53;2.80;;;;;;;20.30;58.42;102036.00;5026948;28;20090;-74
2022/07/18 09:32:44;;;;;;;11.88;3.13;;;;;;;20.34;58.11;102031.97;5029591;28;20453;-75
2022/07/18 09:35:12;;;;;;;10.80;3.53;;;;;;;20.39;56.86;102026.91;5030021;28;20358;-75
2022/07/18 09:37:39;;;;;;;9.82;3.30;;;;;;;20.50;56.45;102034.94;5025269;28;20049;-75
2022/07/18 09:40:18;;;;;;;14.02;4.38;;;;;;;20.74;56.57;102033.56;5032018;28;20164;-75
2022/07/18 09:42:47;;;;;;;11.02;3.63;;;;;;;20.66;57.61;102036.16;5028104;28;20025;-75
2022/07/18 09:45:13;;;;;;;8.98;3.55;;;;;;;20.67;56.84;102032.44;5035315;28;20041;-75
2022/07/18 09:47:57;;;;;;;13.40;3.85;;;;;;;20.72;57.90;102028.25;5029361;28;20041;-75
2022/07/18 09:50:28;;;;;;;11.55;3.60;;;;;;;20.67;57.09;102035.19;5033966;28;20393;-75
2022/07/18 09:53:19;;;;;;;11.63;3.25;;;;;;;20.68;58.12;102026.84;5030319;28;20090;-75
2022/07/18 09:55:50;;;;;;;14.13;4.00;;;;;;;21.08;52.77;102025.63;5030483;28;20041;-75
2022/07/18 09:58:20;;;;;;;12.98;3.70;;;;;;;20.95;56.61;102026.00;5037796;28;20025;-75
2022/07/18 10:00:45;;;;;;;;;;;;;;;21.06;57.81;102026.81;5036183;28;20033;-75
2022/07/18 10:03:11;;;;;;;9.18;3.30;;;;;;;21.00;58.66;102017.34;5031779;28;19909;-75
2022/07/18 10:05:38;;;;;;;7.63;3.17;;;;;;;21.06;56.72;102022.19;5032975;28;20034;-75
2022/07/18 10:08:07;;;;;;;10.48;3.67;;;;;;;21.20;55.05;102019.94;5030347;28;20071;-75
2022/07/18 10:10:33;;;;;;;13.63;3.15;;;;;;;21.19;56.09;102030.03;5028466;28;20025;-75
2022/07/18 10:12:59;;;;;;;8.32;3.10;;;;;;;21.34;56.79;102016.69;5032206;28;20393;-75
2022/07/18 10:15:28;;;;;;;11.50;3.88;;;;;;;21.45;54.81;102015.56;5029606;28;20032;-75
2022/07/18 10:17:54;;;;;;;10.63;3.40;;;;;;;21.34;56.17;102018.56;5032676;28;20120;-75
2022/07/18 10:20:26;;;;;;;10.05;3.55;;;;;;;21.46;55.29;102015.44;5030522;28;20108;-75
2022/07/18 10:22:55;;;;;;;12.32;3.20;;;;;;;21.48;55.17;102010.66;5027594;28;20033;-76
2022/07/18 10:25:25;;;;;;;7.85;3.10;;;;;;;21.51;55.75;102014.13;5031864;28;20049;-76
2022/07/18 10:27:53;;;;;;;11.98;3.55;;;;;;;21.58;54.86;102013.38;5031123;28;20025;-76
2022/07/18 10:30:33;;;;;;;13.88;4.00;;;;;;;21.82;53.53;102009.13;5032952;28;20390;-76
2022/07/18 10:32:59;;;;;;;8.10;3.13;;;;;;;21.64;55.68;102012.72;5032147;28;20029;-76
2022/07/18 10:36:03;;;;;;;13.18;3.22;;;;;;;21.67;56.00;102011.56;5029119;28;20378;-76
2022/07/18 10:38:28;;;;;;;12.38;3.95;;;;;;;21.97;52.94;102001.19;5026497;28;20044;-76
2022/07/18 10:41:06;;;;;;;7.72;3.10;;;;;;;21.97;54.79;102007.50;5030999;28;20113;-75
2022/07/18 10:43:33;;;;;;;11.25;3.42;;;;;;;22.09;53.20;102004.53;5028037;28;20029;-75
2022/07/18 10:46:00;;;;;;;10.38;3.08;;;;;;;21.98;54.23;102006.50;5026264;28;20033;-75
2022/07/18 10:48:37;;;;;;;11.98;2.97;;;;;;;22.13;53.73;102003.19;5026413;28;20029;-76
2022/07/18 10:51:10;;;;;;;8.77;2.90;;;;;;;22.04;54.36;102007.75;5030577;28;20045;-76
2022/07/18 10:53:54;;;;;;;7.45;3.00;;;;;;;22.10;54.73;101998.88;5031774;28;20025;-77
2022/07/18 10:56:28;;;;;;;7.63;2.95;;;;;;;21.95;55.37;102001.34;5030355;28;20044;-77
2022/07/18 10:59:13;;;;;;;6.53;2.53;;;;;;;21.93;55.88;102003.41;5027630;28;20025;-74
2022/07/18 11:01:48;;;;;;;10.95;3.28;;;;;;;22.21;53.60;102007.84;5021206;28;20037;-74
2022/07/18 11:04:30;;;;;;;7.90;3.05;;;;;;;22.48;50.51;101998.66;5024593;28;20026;-74
2022/07/18 11:07:03;;;;;;;12.85;3.83;;;;;;;22.46;53.47;102003.41;5050519;28;20025;-74
2022/07/18 11:09:35;;;;;;;8.13;3.10;;;;;;;22.51;53.96;101998.31;5040159;28;20026;-74
2022/07/18 11:12:23;;;;;;;8.82;3.60;;;;;;;22.60;52.62;102001.94;5036753;28;20029;-74
2022/07/18 11:15:10;;;;;;;6.85;2.67;;;;;;;22.63;53.70;101997.00;5027889;28;20021;-74
2022/07/18 11:17:51;;;;;;;7.47;2.88;;;;;;;22.69;53.18;101990.00;5028386;28;20086;-74
2022/07/18 11:20:36;;;;;;;11.85;3.13;;;;;;;22.79;53.54;101987.13;5027348;28;20363;-74
2022/07/18 11:23:04;;;;;;;8.98;3.30;;;;;;;22.99;49.77;101985.84;5027755;28;20037;-74